Flight Track Log - Related Links

Times and Time Zones

All times are in EDT time to prevent confusion due to time zone crossing. See the AAL994 flight status page for this flight to view local times or setup timezone preferences in your user account.

Time Position Orientation Groundspeed Altitude Reporting Facility
EDT Latitude Longitude Course Direction KTS MPH feet Rate Location/Type
Sat 09:27:00 AM 12.3499 -86.0855 21° North  Level FlightAware Approximate
Sat 09:28:00 AM 12.4542 -86.0442 21° North  Level FlightAware Approximate
Sat 09:29:00 AM 12.5584 -86.0027 21° North  Level FlightAware Approximate
Sat 09:30:00 AM 12.6626 -85.9613 21° North  Level FlightAware Approximate
Sat 09:31:00 AM 12.7668 -85.9198 21° North  Level FlightAware Approximate
Sat 09:32:00 AM 12.8710 -85.8783 21° North  Level FlightAware Approximate
Sat 09:33:00 AM 12.9752 -85.8368 21° North  Level FlightAware Approximate
Sat 09:34:00 AM 13.0794 -85.7952 21° North  Level FlightAware Approximate
Sat 09:35:00 AM 13.1835 -85.7536 21° North  Level FlightAware Approximate
Sat 09:36:00 AM 13.2877 -85.7120 21° North  Level FlightAware Approximate
Sat 09:37:00 AM 13.3919 -85.6703 21° North  Level FlightAware Approximate
Sat 09:38:00 AM 13.4960 -85.6285 21° North  Level FlightAware Approximate
Sat 09:39:00 AM 13.6002 -85.5868 21° North  Level FlightAware Approximate
Sat 09:40:00 AM 13.7043 -85.5450 21° North  Level FlightAware Approximate
Sat 09:41:00 AM 13.8083 -85.5030 21° North  Level Estimated
Sat 09:42:00 AM 13.9125 -85.4613 21° North  Level FlightAware Approximate
Sat 09:43:00 AM 14.0167 -85.4195 21° North  Level FlightAware Approximate
Sat 09:44:00 AM 14.1208 -85.3776 21° North  Level FlightAware Approximate
Sat 09:45:00 AM 14.2250 -85.3358 21° North  Level FlightAware Approximate
Sat 09:46:00 AM 14.3291 -85.2939 21° North  Level FlightAware Approximate
Sat 09:47:00 AM 14.4340 -85.2516 21° North  Level FlightAware Approximate
Sat 09:48:00 AM 14.5390 -85.2094 21° North  Level FlightAware Approximate
Sat 09:49:00 AM 14.6439 -85.1670 21° North  Level FlightAware Approximate
Sat 09:50:00 AM 14.7488 -85.1247 21° North  Level FlightAware Approximate
Sat 09:51:00 AM 14.8537 -85.0823 21° North  Level FlightAware Approximate
Sat 09:52:00 AM 14.9584 -85.0395 21° North  Level Estimated
Sat 09:53:00 AM 15.0635 -84.9975 21° North  Level FlightAware Approximate
Sat 09:54:00 AM 15.1685 -84.9556 21° North  Level FlightAware Approximate
Sat 09:55:00 AM 15.2736 -84.9135 21° North  Level FlightAware Approximate
Sat 09:56:00 AM 15.3787 -84.8715 21° North  Level FlightAware Approximate
Sat 09:57:00 AM 15.4837 -84.8294 21° North  Level FlightAware Approximate
Sat 09:58:00 AM 15.5888 -84.7872 21° North  Level FlightAware Approximate
Sat 09:59:00 AM 15.6938 -84.7450 21° North  Level FlightAware Approximate
Sat 10:00:00 AM 15.7988 -84.7028 21° North  Level FlightAware Approximate
Sat 10:01:00 AM 15.9039 -84.6606 21° North  Level FlightAware Approximate
Sat 10:02:00 AM 16.0089 -84.6182 21° North  Level FlightAware Approximate
Sat 10:03:00 AM 16.1139 -84.5759 21° North  Level FlightAware Approximate
Sat 10:04:00 AM 16.2189 -84.5335 21° North  Level FlightAware Approximate
Sat 10:05:00 AM 16.3239 -84.4910 21° North  Level FlightAware Approximate
Sat 10:06:00 AM 16.4288 -84.4485 21° North  Level FlightAware Approximate
Sat 10:07:00 AM 16.5338 -84.4060 21° North  Level FlightAware Approximate
Sat 10:08:00 AM 16.6388 -84.3634 21° North  Level FlightAware Approximate
Sat 10:09:00 AM 16.7437 -84.3207 21° North  Level FlightAware Approximate
Sat 10:10:00 AM 16.8486 -84.2781 21° North  Level FlightAware Approximate
Sat 10:11:00 AM 16.9536 -84.2353 21° North  Level FlightAware Approximate
Sat 10:12:00 AM 17.0585 -84.1926 21° North  Level FlightAware Approximate
Sat 10:13:00 AM 17.1634 -84.1497 21° North  Level FlightAware Approximate
Sat 10:14:00 AM 17.2683 -84.1068 21° North  Level FlightAware Approximate
Sat 10:15:00 AM 17.3732 -84.0639 21° North  Level FlightAware Approximate
Sat 10:16:00 AM 17.4781 -84.0209 21° North  Level FlightAware Approximate
Sat 10:17:00 AM 17.5830 -83.9779 21° North  Level FlightAware Approximate
Sat 10:18:00 AM 17.6879 -83.9349 21° North  Level FlightAware Approximate
Sat 10:19:00 AM 17.7927 -83.8917 21° North  Level FlightAware Approximate
Sat 10:20:00 AM 17.8976 -83.8485 21° North  Level FlightAware Approximate
Sat 10:21:00 AM 18.0024 -83.8053 21° North  Level FlightAware Approximate
Sat 10:22:00 AM 18.1073 -83.7620 21° North  Level FlightAware Approximate
Sat 10:23:00 AM 18.2121 -83.7187 21° North  Level FlightAware Approximate
Sat 10:24:00 AM 18.3169 -83.6753 21° North  Level FlightAware Approximate
Sat 10:25:00 AM 18.4217 -83.6319 21° North  Level FlightAware Approximate
Sat 10:26:00 AM 18.5265 -83.5884 21° North  Level FlightAware Approximate
Sat 10:27:00 AM 18.6313 -83.5449 21° North  Level FlightAware Approximate
Sat 10:28:00 AM 18.7360 -83.5013 22° Northeast  Level FlightAware Approximate
Sat 10:29:00 AM 18.8408 -83.4576 22° Northeast  Level FlightAware Approximate
Sat 10:30:00 AM 18.9455 -83.4139 22° Northeast  Level FlightAware Approximate
Sat 10:31:00 AM 19.0503 -83.3702 22° Northeast  Level FlightAware Approximate
Sat 10:32:00 AM 19.1550 -83.3264 22° Northeast  Level FlightAware Approximate
Sat 10:33:00 AM 19.2597 -83.2825 22° Northeast  Level FlightAware Approximate
Sat 10:34:00 AM 19.3644 -83.2386 22° Northeast  Level FlightAware Approximate
Sat 10:35:00 AM 19.4691 -83.1946 22° Northeast  Level FlightAware Approximate
Sat 10:36:00 AM 19.5738 -83.1506 22° Northeast  Level FlightAware Approximate
Sat 10:37:00 AM 19.6785 -83.1065 22° Northeast  Level FlightAware Approximate
Sat 10:38:00 AM 19.7826 -83.0607 22° Northeast  Level Estimated
Sat 10:39:00 AM 19.8872 -83.0163 22° Northeast  Level FlightAware Approximate
Sat 10:40:00 AM 19.9918 -82.9719 22° Northeast  Level FlightAware Approximate
Sat 10:41:00 AM 20.0963 -82.9275 22° Northeast  Level FlightAware Approximate
Sat 10:42:00 AM 20.2003 -82.8814 22° Northeast  Level Estimated
Sat 10:43:00 AM 20.3038 -82.8364 22° Northeast  Level FlightAware Approximate
Sat 10:44:00 AM 20.4073 -82.7914 22° Northeast  Level FlightAware Approximate
Sat 10:45:00 AM 20.5108 -82.7462 22° Northeast  Level FlightAware Approximate
Sat 10:46:00 AM 20.6139 -82.7002 22° Northeast  Level Estimated
Sat 10:47:00 AM 20.7177 -82.6559 22° Northeast  Level FlightAware Approximate
Sat 10:48:00 AM 20.8215 -82.6114 22° Northeast  Level FlightAware Approximate
Sat 10:49:00 AM 20.9253 -82.5669 22° Northeast  Level FlightAware Approximate
Sat 10:50:00 AM 21.0290 -82.5224 22° Northeast  Level FlightAware Approximate
Sat 10:51:00 AM 21.1327 -82.4778 22° Northeast  Level FlightAware Approximate
Sat 10:52:00 AM 21.2365 -82.4332 22° Northeast  Level FlightAware Approximate
Sat 10:53:00 AM 21.3402 -82.3884 22° Northeast  Level FlightAware Approximate
Sat 10:54:00 AM 21.4439 -82.3436 22° Northeast  Level FlightAware Approximate
Sat 10:55:00 AM 21.5476 -82.2988 22° Northeast  Level FlightAware Approximate
Sat 10:56:00 AM 21.6513 -82.2539 22° Northeast  Level FlightAware Approximate
Sat 10:57:00 AM 21.7549 -82.2089 22° Northeast  Level FlightAware Approximate
Sat 10:58:00 AM 21.8586 -82.1638 22° Northeast  Level FlightAware Approximate
Sat 10:59:00 AM 21.9623 -82.1187 22° Northeast  Level FlightAware Approximate
Sat 11:00:00 AM 22.0659 -82.0735 22° Northeast  Level FlightAware Approximate
Sat 11:01:00 AM 22.1695 -82.0283 22° Northeast  Level FlightAware Approximate
Sat 11:02:00 AM 22.2731 -81.9830 22° Northeast  Level FlightAware Approximate
Sat 11:03:00 AM 22.3767 -81.9376 22° Northeast  Level FlightAware Approximate
Sat 11:04:00 AM 22.4803 -81.8922 22° Northeast  Level FlightAware Approximate
Sat 11:04:54 AM 22.7731 -81.6003 22° Northeast 452 520 36,000  Level Miami Center
Sat 11:05:00 AM 22.5839 -81.8466 22° Northeast  Level FlightAware Approximate
Sat 11:05:54 AM 22.8869 -81.5639 16° North 439 505 36,000  Level Miami Center
Sat 11:06:00 AM 22.6885 -81.7978 23° Northeast  Level FlightAware Approximate
Sat 11:06:54 AM 23.0008 -81.5272 17° North 427 491 36,000  Level Miami Center
Sat 11:07:00 AM 22.7932 -81.7489 23° Northeast  Level FlightAware Approximate
Sat 11:08:00 AM 22.8978 -81.7000 23° Northeast  Level FlightAware Approximate
Sat 11:09:00 AM 23.0031 -81.6523 22° Northeast  Level FlightAware Approximate
Sat 11:10:00 AM 23.1085 -81.6053 22° Northeast  Level FlightAware Approximate
Sat 11:12:41 AM 23.6820 -81.3160 17° North 418 481 36,000  Level FlightAware ADS-B
Sat 11:13:21 AM 23.7520 -81.2950 15° North 419 482 36,000  Level FlightAware ADS-B
Sat 11:14:01 AM 23.8350 -81.2690 16° North 420 483 36,000  Level FlightAware ADS-B
Sat 11:14:42 AM 23.9110 -81.2450 16° North 420 483 36,000  Level FlightAware ADS-B
Sat 11:15:26 AM 23.9780 -81.2260 15° North 429 494 36,000 -568 Level FlightAware ADS-B
Sat 11:15:56 AM 24.0580 -81.2410 350° North 429 494 35,300 -1,108 Descending FlightAware ADS-B
Sat 11:16:31 AM 24.1210 -81.2740 334° Northwest 429 494 34,800 -918 Descending FlightAware ADS-B
Sat 11:17:21 AM 24.2160 -81.3150 339° North 442 509 34,000 -1,011 Descending FlightAware ADS-B
Sat 11:18:00 AM 24.2950 -81.3020 North 437 503 33,300 -1,000 Descending FlightAware ADS-B
Sat 11:18:45 AM 24.3860 -81.2750 15° North 447 514 32,600 -988 Descending FlightAware ADS-B
Sat 11:19:25 AM 24.4660 -81.2520 15° North 446 513 31,900 -1,840 Descending FlightAware ADS-B
Sat 11:20:00 AM 24.5370 -81.2310 15° North 439 505 30,300 -2,753 Descending FlightAware ADS-B
Sat 11:20:50 AM 24.6350 -81.1990 17° North 437 503 28,000 -2,600 Descending FlightAware ADS-B
Sat 11:21:30 AM 24.7140 -81.1740 16° North 437 503 26,400 -2,296 Descending FlightAware ADS-B
Sat 11:22:11 AM 24.7880 -81.1510 16° North 422 486 24,900 -2,222 Descending FlightAware ADS-B
Sat 11:22:51 AM 24.8600 -81.1280 16° North 421 484 23,400 -2,370 Descending FlightAware ADS-B
Sat 11:23:32 AM 24.9450 -81.1010 16° North 404 465 21,700 -2,372 Descending FlightAware ADS-B
Sat 11:24:17 AM 25.0260 -81.0750 16° North 403 464 20,000 -2,155 Descending FlightAware ADS-B
Sat 11:25:15 AM 25.1240 -81.0440 16° North 385 443 18,000 -2,188 Descending FlightAware ADS-B
Sat 11:25:53 AM 25.1930 -81.0220 16° North 386 444 16,500 -2,313 Descending FlightAware ADS-B
Sat 11:26:38 AM 25.2690 -80.9980 16° North 370 426 14,800 -2,045 Descending FlightAware ADS-B
Sat 11:27:21 AM 25.3280 -80.9790 16° North 370 426 13,500 -2,175 Descending FlightAware ADS-B
Sat 11:27:58 AM 25.4010 -80.9550 17° North 352 405 11,900 -2,268 Descending FlightAware ADS-B
Sat 11:28:43 AM 25.4730 -80.9320 16° North 350 403 10,400 -1,348 Descending FlightAware ADS-B
Sat 11:29:27 AM 25.5390 -80.9110 16° North 305 351 9,900 -655 Descending FlightAware ADS-B
Sat 11:29:38 AM 25.5520 -80.9040 26° Northeast 292 336 9,800 -923 Descending FlightAware ADS-B
Sat 11:29:53 AM 25.5640 -80.8860 54° Northeast 290 334 9,500 -1,220 Descending FlightAware ADS-B
Sat 11:30:37 AM 25.5870 -80.8260 67° East 280 322 8,600 -1,309 Descending FlightAware ADS-B
Sat 11:30:48 AM 25.5950 -80.8150 51° Northeast 275 316 8,300 -1,610 Descending FlightAware ADS-B
Sat 11:31:18 AM 25.6230 -80.7850 44° Northeast 274 315 7,500 -1,309 Descending FlightAware ADS-B
Sat 11:31:43 AM 25.6470 -80.7590 44° Northeast 272 313 7,100 -982 Descending FlightAware ADS-B
Sat 11:32:13 AM 25.6730 -80.7310 44° Northeast 256 295 6,600 -700 Descending FlightAware ADS-B
Sat 11:32:43 AM 25.6980 -80.7030 45° Northeast 235 270 6,400 -600 Descending FlightAware ADS-B
Sat 11:33:13 AM 25.7200 -80.6790 45° Northeast 215 247 6,000 -764 Descending FlightAware ADS-B
Sat 11:33:38 AM 25.7370 -80.6590 47° Northeast 210 242 5,700 -840 Descending FlightAware ADS-B
Sat 11:34:03 AM 25.7530 -80.6390 48° Northeast 199 229 5,300 -1,200 Descending FlightAware ADS-B
Sat 11:34:33 AM 25.7700 -80.6140 53° Northeast 204 235 4,600 -1,067 Descending FlightAware ADS-B
Sat 11:34:48 AM 25.7730 -80.5990 77° East 194 223 4,500 -682 Descending FlightAware ADS-B
Sat 11:35:17 AM 25.7740 -80.5720 88° East 182 209 4,100 -818 Descending FlightAware ADS-B
Sat 11:35:32 AM 25.7750 -80.5570 86° East 176 203 3,900 -769 Descending FlightAware ADS-B
Sat 11:35:56 AM 25.7760 -80.5370 87° East 171 197 3,600 -643 Descending FlightAware ADS-B
Sat 11:36:28 AM 25.7780 -80.5070 86° East 174 200 3,300 -889 Descending FlightAware ADS-B
Sat 11:36:50 AM 25.7790 -80.4880 87° East 179 206 2,800 -1,167 Descending FlightAware ADS-B
Sat 11:37:04 AM 25.7790 -80.4750 90° East 181 208 2,600 -931 Descending FlightAware ADS-B
Sat 11:37:48 AM 25.7810 -80.4350 87° East 180 207 1,900 -904 Descending FlightAware ADS-B
Sat 11:38:17 AM 25.7820 -80.4080 88° East 169 194 1,500 -835 Descending FlightAware ADS-B
Sat 11:39:07 AM 25.7840 -80.3670 87° East 157 181 800 -672 Descending FlightAware ADS-B
Sat 11:40:13 AM 25.7850 -80.3190 89° East 147 169 200 -545 Descending FlightAware ADS-B
Sat 11:40:33 AM 25.7870 -80.3010 83° East 135 155 -600 Descending FlightAware ADS-B
Sat 11:41:05 AM 25.7870 -80.2890 90° East 41 47  Level FlightAware ADS-B
Sat 11:41:17 AM 25.7880 -80.2870 61° Northeast 23 26  Level FlightAware ADS-B

Login

Don't have an account? Register now (free) for customized features, flight alerts, and more!